Hayward, WI

9:24 AM CST on February 12, 2016 (GMT -0600)
Sawyer County | | Change Station
CLOSE
Current Station
Airport
Location: Hayward,
Elevation: 1214 ft
Nearby Weather Stations
Active Advisory: Wind Chill Advisory

Elev 1214 ft 46.02 °N, 91.45 °W | Updated 31 minutes ago

Mostly Cloudy
Mostly Cloudy
3 °F
Feels Like -12 °F
N
9
Wind Variable Wind from NNW
Gusts 18 mph

Today
High -- | Low -- °F
--% Chance of Precip.
Yesterday
High -- | Low -- °F
Precip. -- in
Pressure 30.32 in
Visibility 10.0 miles
Clouds Mostly Cloudy 2500 ft
Mostly Cloudy 3000 ft
Windchill -12 °F
Dew Point -10 °F
Humidity 55%
Rainfall 0.00 in
Snow Depth Not available.
7:13 AM 5:26 PM
Waxing Crescent, 21% visible
METAR KHYR 121453Z AUTO 34008G16KT 10SM BKN025 BKN030 M16/M23 A3023 RMK AO2 SLP268 T11611233 53020
Pressure 30.32 in
Visibility 10.0 miles
Clouds Mostly Cloudy 2500 ft
Mostly Cloudy 3000 ft
Windchill -12 °F
Dew Point -10 °F
Humidity 55%
Rainfall 0.00 in
Snow Depth Not available.
7:13 AM 5:26 PM
Waxing Crescent, 21% visible
METAR KHYR 121453Z AUTO 34008G16KT 10SM BKN025 BKN030 M16/M23 A3023 RMK AO2 SLP268 T11611233 53020

10-Day Weather Forecast

Almanac

Astronomy

Feb. 12, 2016 Rise Set
Actual Time
Civil Twilight
Nautical Twilight
Astronomical Twilight
Moon
Length of Visible Light
Length of Day
Tomorrow will be .
, % of the Moon is Illuminated

Today's Extremes

State Highs State Lows

Community

WunderPhotos

Upload Photos

1,892,329 photos uploaded!

WunderBlog® & News

Nearby

Air Quality

  Air Quality AQ Index Pollutant
Not available.

Snow Depth

Station Depth Elevation

Earthquake Activity

City Distance Mag. Time & Date
Minimum magnitude displayed is 2.5.

Coastal Water Temperatures

Place Temperature

Stations

Nearby Weather Stations

Station Location Temp. Windchill Dew Point Humidity Wind Precip. Elev Updated Type
                   

Watches & Warnings

Wind Chill Advisory
Issued: 5:08 AM CST Feb. 12, 2016 – National Weather Service

... Wind Chill Advisory in effect from 6 PM this evening to 9 am
CST Saturday...

The National Weather Service in Duluth has issued a Wind Chill
Advisory... which is in effect from 6 PM this evening to 9 am CST
Saturday.

* Locations... portions of central Minnesota... including
Brainerd... Aitkin... Pine City and Hinckley... as well as all of
northwest Wisconsin.

* Wind chill values... as low as 35 below.

* Sustained winds... northwest 10 to 15 mph.

* Wind gusts... up to 25 mph.

* Frostbite time... 20 to 30 minutes on exposed skin.

Precautionary/preparedness actions...

A Wind Chill Advisory means that very cold air and strong winds
will combine to generate low wind chills. This will result in
frost bite and lead to hypothermia if precautions are not taken.
If you must venture outdoors... make sure you wear a hat and
gloves.